Details From PAPG - PETERSBURG JAMES A JOHNSON
To PAJN - Juneau Intl
Flight Number -
Tags generated
Created
Modified
Stats Distance 117 nm / 216 km
Max Altitude 7,900 ft / 2,408 m
Waypoints 3
Social Downloads 1
Likes 0
Share VATSIM

Download

Looking for another format? Having issues loading an existing format? Contact us
Advertisement - Login to hide

Notes

Basic altitude profile: - Ascent Rate: 2500ft/min - Ascent Speed: 250kts - Cruise Altitude: 35000ft - Cruise Speed: 420kts - Descent Rate: 1500ft/min - Descent Speed: 250kts Options: - Use NATs: yes - Use PACOTS: yes - Use low airways: no - Use high airways: yes

Route

PAPG HOODS PAJN

ID Type Via Altitude Latitude Longitude Leg Dist Tot Dist Heading (true) Name
O PAPG APT - 0 ft / 0 m 56.80165˚ -132.94529˚ - 0 nm - PETERSBURG JAMES A JOHNSON
HOODS FIX - 7,900 ft / 2,408 m 57.74293˚ -134.68157˚ 79 nm 79 nm 316° / 314° -
O PAJN APT - 0 ft / 0 m 58.35496˚ -134.57628˚ 36 nm 116 nm 5° / 5° Juneau Intl

Altitude Profile

Advertisement - Login to hide

PAPG

Details ICAO PAPG (PSG)
Name PETERSBURG JAMES A JOHNSON
Region USA (Alaska)
Timezone America/Juneau (UTC-9.0)
Stats Elevation 105 ft / 32 m (AMSL)
Location 56.801651° -132.945289°
Runways 1
Magnetic Variation 18.868° E

METAR

PAPG 121356Z AUTO 03004KT 10SM OVC029 08/06 RMK AO2 RAE39 SLPNO P0001 T00780061 $

Decode

TAF

TAF PAPG 121134Z 1212/1312 VRB03KT P6SM -RA FEW025 OVC030 WS020/15035KT TEMPO 1212/1216 VRB03KT 4SM -RA BR BKN015 OVC030 FM121600 14005KT 5SM -RA BR BKN015 OVC025 FM122100 21003KT 5SM -RA BR SCT015 OVC025 FM130500 12003KT 3SM -RA BR FEW025 OVC050 AMD LTD TO CLD VIS AND WIND 1212/1215

Decode

Departure Runways

ID Width Length Bearing (true) Bearing (mag) Surface Threshold Offset Overrun Length
04 150 ft / 46 m 5,982 ft / 1,823 m 70.70° 51.83° Asphalt 0 ft / 0 m 0 ft / 0 m
22 150 ft / 46 m 5,982 ft / 1,823 m 250.73° 231.86° Asphalt 0 ft / 0 m 0 ft / 0 m

PAJN

Details ICAO PAJN (JNU)
Name Juneau Intl
Region USA (Alaska)
Timezone America/Juneau (UTC-9.0)
Stats Elevation 21 ft / 6 m (AMSL)
Location 58.354964° -134.576278°
Runways 1
Magnetic Variation 19.150° E

METAR

PAJN 121353Z 08011G14KT 7SM -RA BKN032 OVC042 07/06 A3002

Decode

TAF

PAJN 121134Z 1212/1312 11004KT P6SM BCFG SCT001 SCT010 BKN060 FM121600 13012KT 5SM -RA BR BKN025 OVC035 FM122000 10007KT P6SM VCSH BKN040 OVC060 FM130600 11004KT 6SM -RA BR OVC040

Decode

Destination Runways

ID Width Length Bearing (true) Bearing (mag) Surface Threshold Offset Overrun Length
08 150 ft / 46 m 8,430 ft / 2,570 m 104.87° 85.72° Asphalt 0 ft / 0 m 450 ft / 137 m
26 150 ft / 46 m 8,430 ft / 2,570 m 284.90° 265.75° Asphalt 0 ft / 0 m 225 ft / 69 m

Approach Navaids

Runway Type Ident Frequency Range Bearing (true) Bearing (mag) Slope Elevation
08 Localiser IJDL 109.90 MHz 18 nm / 33 km 84.92° 65.77° - 21 ft / 6 m (AMSL)
08 DME IJDL 109.90 MHz 18 nm / 33 km - - - 175 ft / 53 m (AMSL)

Popular Alternatives